YBG weather

CFB Bagotville
Bagotville, Quebec, Canada

Public forecast

Using degrees Celsius for public forecast. Weather courtesy of forecast.io.

METAR (pilot weather report)

Retrieved 2019/06/15 20:42 UTC (9 minutes ago):

CYBG 152042Z 20006G21KT 25SM -SHRA FEW040 OVC090 17/11 A2967 RMK SC2AC6 SLP049

TAF (pilot weather forecast)

Retrieved 2019/06/15 18:33 UTC (2 hours ago):

TAF TAF CYBG 151730Z 1518/1618 16008KT P6SM SCT040 BKN080 TEMPO 1518/1522 P6SM -SHRA BKN040 OVC080 FM152200 25008KT 6SM -RA BR SCT012 OVC025 TEMPO 1522/1602 3SM -RA BR OVC012 FM160200 27008KT P6SM SCT040 BKN070 TEMPO 1602/1604 P6SM -SHRA FM160600 27010KT P6SM BKN030 FM161100 26010G20KT P6SM BKN030 TEMPO 1611/1618 P6SM -SHRA RMK NXT FCST BY 160000Z